createdAt,value
2023-06-17T00:00:18.532Z,15
2023-06-17T00:01:19.471Z,15
2023-06-17T00:02:20.350Z,15.1
2023-06-17T00:03:21.370Z,15
2023-06-17T00:04:22.413Z,15
2023-06-17T00:05:23.366Z,15.1
2023-06-17T00:06:24.363Z,15.1
2023-06-17T00:07:25.361Z,15.1
2023-06-17T00:08:26.401Z,15.1
2023-06-17T00:09:27.369Z,15.1
2023-06-17T00:10:28.418Z,15.1
2023-06-17T00:11:29.435Z,15.1
2023-06-17T00:12:30.369Z,15.1
2023-06-17T00:13:31.385Z,15.2
2023-06-17T00:14:32.357Z,15.2
2023-06-17T00:15:33.382Z,15.1
2023-06-17T00:16:34.394Z,15.1
2023-06-17T00:17:35.433Z,15.1
2023-06-17T00:18:36.361Z,15.1
2023-06-17T00:19:37.393Z,15.1
2023-06-17T00:20:38.381Z,15.1
2023-06-17T00:21:39.366Z,15.1
2023-06-17T00:22:40.423Z,15.1
2023-06-17T00:23:41.390Z,15
2023-06-17T00:24:42.387Z,15
2023-06-17T00:25:43.366Z,15
2023-06-17T00:26:44.380Z,15
2023-06-17T00:27:45.379Z,15
2023-06-17T00:28:46.378Z,14.9
2023-06-17T00:29:47.374Z,15
2023-06-17T00:30:48.392Z,15
2023-06-17T00:31:49.363Z,15
2023-06-17T00:32:50.490Z,15
2023-06-17T00:33:51.405Z,15
2023-06-17T00:34:52.364Z,15
2023-06-17T00:35:55.808Z,15
2023-06-17T00:36:54.391Z,15
2023-06-17T00:37:55.389Z,15
2023-06-17T00:38:56.412Z,15
2023-06-17T00:39:57.374Z,15
2023-06-17T00:40:58.379Z,15
2023-06-17T00:41:59.376Z,15
2023-06-17T00:43:00.393Z,15
2023-06-17T00:44:01.420Z,15
2023-06-17T00:45:02.412Z,15
2023-06-17T00:46:03.410Z,14.9
2023-06-17T00:47:04.445Z,14.9
2023-06-17T00:48:05.398Z,14.9
2023-06-17T00:49:06.396Z,14.9
2023-06-17T00:50:07.415Z,14.9
2023-06-17T00:51:08.544Z,14.9
2023-06-17T00:52:17.711Z,14.9
2023-06-17T00:53:10.395Z,14.9
2023-06-17T00:54:11.406Z,14.9
2023-06-17T00:55:12.417Z,14.9
2023-06-17T00:56:13.395Z,14.9
2023-06-17T00:57:14.439Z,14.8
2023-06-17T00:58:15.384Z,14.8
2023-06-17T00:59:16.380Z,14.8
2023-06-17T01:00:17.504Z,14.8
2023-06-17T01:01:18.407Z,14.8
2023-06-17T01:02:19.430Z,14.8
2023-06-17T01:03:20.557Z,14.8
2023-06-17T01:04:21.407Z,14.7
2023-06-17T01:05:22.396Z,14.7
2023-06-17T01:06:23.393Z,14.7
2023-06-17T01:07:24.464Z,14.7
2023-06-17T01:08:25.398Z,14.7
2023-06-17T01:09:26.410Z,14.7
2023-06-17T01:10:27.393Z,14.6
2023-06-17T01:11:28.396Z,14.6
2023-06-17T01:12:29.429Z,14.6
2023-06-17T01:13:30.389Z,14.5
2023-06-17T01:14:31.404Z,14.6
2023-06-17T01:15:32.412Z,14.6
2023-06-17T01:16:33.448Z,14.6
2023-06-17T01:17:34.454Z,14.6
2023-06-17T01:18:35.445Z,14.6
2023-06-17T01:19:36.412Z,14.5
2023-06-17T01:20:37.550Z,14.5
2023-06-17T01:21:38.416Z,14.5
2023-06-17T01:22:39.411Z,14.5
2023-06-17T01:23:40.462Z,14.5
2023-06-17T01:24:41.442Z,14.5
2023-06-17T01:25:42.412Z,14.4
2023-06-17T01:26:43.398Z,14.4
2023-06-17T01:27:44.411Z,14.5
2023-06-17T01:28:45.405Z,14.5
2023-06-17T01:29:46.431Z,14.5
2023-06-17T01:30:47.444Z,14.5
2023-06-17T01:31:48.429Z,14.5
2023-06-17T01:32:49.464Z,14.5
2023-06-17T01:33:50.455Z,14.5
2023-06-17T01:34:51.431Z,14.5
2023-06-17T01:35:52.403Z,14.5
2023-06-17T01:36:53.435Z,14.5
2023-06-17T01:37:54.398Z,14.5
2023-06-17T01:38:55.420Z,14.5
2023-06-17T01:39:56.460Z,14.5
2023-06-17T01:40:57.419Z,14.5
2023-06-17T01:41:58.417Z,14.5
2023-06-17T01:42:59.407Z,14.5
2023-06-17T01:44:00.452Z,14.5
2023-06-17T01:45:01.467Z,14.5
2023-06-17T01:46:02.447Z,14.5
2023-06-17T01:47:03.419Z,14.6
2023-06-17T01:48:04.475Z,14.6
2023-06-17T01:49:05.442Z,14.6
2023-06-17T01:50:06.445Z,14.7
2023-06-17T01:51:07.423Z,14.7
2023-06-17T01:52:08.431Z,14.7
2023-06-17T01:53:09.420Z,14.6
2023-06-17T01:54:10.439Z,14.6
2023-06-17T01:55:11.451Z,14.7
2023-06-17T01:56:12.411Z,14.6
2023-06-17T01:57:13.441Z,14.6
2023-06-17T01:58:14.419Z,14.6
2023-06-17T01:59:15.466Z,14.6
2023-06-17T02:00:16.443Z,14.6
2023-06-17T02:01:17.418Z,14.6
2023-06-17T02:02:18.422Z,14.6
2023-06-17T02:03:19.468Z,14.7
2023-06-17T02:04:20.554Z,14.7
2023-06-17T02:05:21.446Z,14.7
2023-06-17T02:06:22.564Z,14.7
2023-06-17T02:07:23.418Z,14.8
2023-06-17T02:08:24.423Z,14.8
2023-06-17T02:09:25.436Z,14.8
2023-06-17T02:10:26.474Z,14.9
2023-06-17T02:11:27.418Z,14.9
2023-06-17T02:12:28.418Z,14.9
2023-06-17T02:13:29.436Z,14.9
2023-06-17T02:14:30.436Z,14.9
2023-06-17T02:15:31.446Z,14.9
2023-06-17T02:16:32.536Z,14.9
2023-06-17T02:17:33.546Z,14.8
2023-06-17T02:18:34.430Z,14.8
2023-06-17T02:19:35.478Z,14.9
2023-06-17T02:20:36.440Z,14.8
2023-06-17T02:21:37.561Z,14.8
2023-06-17T02:22:38.484Z,14.8
2023-06-17T02:23:39.490Z,14.7
2023-06-17T02:24:40.454Z,14.7
2023-06-17T02:25:41.565Z,14.8
2023-06-17T02:26:42.449Z,14.8
2023-06-17T02:27:43.438Z,14.8
2023-06-17T02:28:44.453Z,14.8
2023-06-17T02:29:45.463Z,14.9
2023-06-17T02:30:46.440Z,14.9
2023-06-17T02:31:47.538Z,14.9
2023-06-17T02:32:48.527Z,14.9
2023-06-17T02:33:49.452Z,14.9
2023-06-17T02:34:50.444Z,14.9
2023-06-17T02:35:51.955Z,14.9
2023-06-17T02:36:53.453Z,14.8
2023-06-17T02:37:54.442Z,14.8
2023-06-17T02:38:55.465Z,14.9
2023-06-17T02:39:56.450Z,14.8
2023-06-17T02:40:57.493Z,14.7
2023-06-17T02:41:58.497Z,14.7
2023-06-17T02:42:59.470Z,14.8
2023-06-17T02:44:00.461Z,14.8
2023-06-17T02:45:01.482Z,14.9
2023-06-17T02:46:02.492Z,14.9
2023-06-17T02:47:03.512Z,14.9
2023-06-17T02:48:04.491Z,15
2023-06-17T02:49:05.450Z,15
2023-06-17T02:50:06.547Z,15.1
2023-06-17T02:51:07.464Z,15
2023-06-17T02:52:08.524Z,15.1
2023-06-17T02:53:09.457Z,15.1
2023-06-17T02:54:10.432Z,15.2
2023-06-17T02:55:11.452Z,15.2
2023-06-17T02:56:12.525Z,15.2
2023-06-17T02:57:13.463Z,15.2
2023-06-17T02:58:14.468Z,15.2
2023-06-17T02:59:15.471Z,15.3
2023-06-17T03:00:16.587Z,15.3
2023-06-17T03:01:17.546Z,15.3
2023-06-17T03:02:18.501Z,15.3
2023-06-17T03:03:19.515Z,15.3
2023-06-17T03:04:20.470Z,15.4
2023-06-17T03:05:21.463Z,15.4
2023-06-17T03:06:22.453Z,15.4
2023-06-17T03:07:23.514Z,15.3
2023-06-17T03:08:24.457Z,15.3
2023-06-17T03:09:25.471Z,15.4
2023-06-17T03:10:26.469Z,15.4
2023-06-17T03:11:27.577Z,15.4
2023-06-17T03:12:28.487Z,15.4
2023-06-17T03:13:29.473Z,15.4
2023-06-17T03:14:30.467Z,15.5
2023-06-17T03:15:31.499Z,15.5
2023-06-17T03:16:32.540Z,15.5
2023-06-17T03:17:33.534Z,15.5
2023-06-17T03:18:34.483Z,15.6
2023-06-17T03:19:35.474Z,15.6
2023-06-17T03:20:36.479Z,15.6
2023-06-17T03:21:37.484Z,15.6
2023-06-17T03:22:38.476Z,15.7
2023-06-17T03:23:39.486Z,15.7
2023-06-17T03:24:40.493Z,15.8
2023-06-17T03:25:41.502Z,15.8
2023-06-17T03:26:42.494Z,15.8
2023-06-17T03:27:43.477Z,15.9
2023-06-17T03:28:44.470Z,15.9
2023-06-17T03:29:45.481Z,15.9
2023-06-17T03:30:46.482Z,15.9
2023-06-17T03:31:47.483Z,15.9
2023-06-17T03:32:48.593Z,15.9
2023-06-17T03:33:49.474Z,15.9
2023-06-17T03:34:50.528Z,15.9
2023-06-17T03:35:51.501Z,15.9
2023-06-17T03:36:53.111Z,15.8
2023-06-17T03:37:54.474Z,15.9
2023-06-17T03:38:55.492Z,15.9
2023-06-17T03:39:56.479Z,15.9
2023-06-17T03:40:57.532Z,15.9
2023-06-17T03:41:58.560Z,16
2023-06-17T03:42:59.493Z,16
2023-06-17T03:44:00.497Z,16
2023-06-17T03:45:01.571Z,16
2023-06-17T03:46:02.506Z,16
2023-06-17T03:47:03.578Z,16
2023-06-17T03:48:04.511Z,16
2023-06-17T03:49:05.510Z,16
2023-06-17T03:50:06.540Z,16.1
2023-06-17T03:51:07.475Z,16.1
2023-06-17T03:52:08.494Z,16.1
2023-06-17T03:53:09.563Z,16.1
2023-06-17T03:54:10.520Z,16.2
2023-06-17T03:55:11.598Z,16.2
2023-06-17T03:56:12.494Z,16.2
2023-06-17T03:57:13.523Z,16.2
2023-06-17T03:58:14.486Z,16.2
2023-06-17T03:59:15.516Z,16.2
2023-06-17T04:00:16.492Z,16.2
2023-06-17T04:01:17.487Z,16.2
2023-06-17T04:02:18.517Z,16.2
2023-06-17T04:03:19.590Z,16.2
2023-06-17T04:04:20.565Z,16.2
2023-06-17T04:05:21.581Z,16.2
2023-06-17T04:06:22.542Z,16.3
2023-06-17T04:07:23.525Z,16.3
2023-06-17T04:08:24.553Z,16.2
2023-06-17T04:09:25.503Z,16.2
2023-06-17T04:10:26.641Z,16.2
2023-06-17T04:11:27.533Z,16.2
2023-06-17T04:12:28.534Z,16.2
2023-06-17T04:13:29.534Z,16.2
2023-06-17T04:14:30.503Z,16.2
2023-06-17T04:15:31.584Z,16.2
2023-06-17T04:16:32.537Z,16.2
2023-06-17T04:17:33.557Z,16.2
2023-06-17T04:18:34.520Z,16.1
2023-06-17T04:19:35.536Z,16.1
2023-06-17T04:20:36.507Z,16.1
2023-06-17T04:21:37.542Z,16.1
2023-06-17T04:22:38.510Z,16
2023-06-17T04:23:39.497Z,16.1
2023-06-17T04:24:40.572Z,16.1
2023-06-17T04:25:41.518Z,16.1
2023-06-17T04:26:42.538Z,16.1
2023-06-17T04:27:43.540Z,16
2023-06-17T04:28:44.556Z,16
2023-06-17T04:29:45.590Z,16.1
2023-06-17T04:30:46.503Z,16.1
2023-06-17T04:31:47.537Z,16.1
2023-06-17T04:32:48.598Z,16
2023-06-17T04:33:49.502Z,16
2023-06-17T04:34:50.530Z,16.1
2023-06-17T04:35:51.514Z,16.1
2023-06-17T04:36:52.524Z,16.2
2023-06-17T04:37:53.520Z,16.1
2023-06-17T04:38:54.515Z,16.2
2023-06-17T04:39:55.510Z,16.2
2023-06-17T04:40:56.530Z,16.2
2023-06-17T04:41:57.518Z,16.2
2023-06-17T04:42:58.550Z,16.1
2023-06-17T04:43:59.529Z,16.1
2023-06-17T04:45:00.522Z,16.1
2023-06-17T04:46:01.579Z,16.2
2023-06-17T04:47:02.567Z,16.2
2023-06-17T04:48:03.572Z,16.3
2023-06-17T04:49:04.521Z,16.3
2023-06-17T04:50:05.549Z,16.3
2023-06-17T04:51:06.591Z,16.4
2023-06-17T04:52:07.550Z,16.4
2023-06-17T04:53:08.897Z,16.3
2023-06-17T04:54:09.530Z,16.3
2023-06-17T04:55:10.590Z,16.3
2023-06-17T04:56:11.520Z,16.4
2023-06-17T04:57:12.538Z,16.4
2023-06-17T04:58:13.573Z,16.4
2023-06-17T04:59:14.519Z,16.4
2023-06-17T05:00:15.522Z,16.4
2023-06-17T05:01:16.551Z,16.4
2023-06-17T05:02:17.531Z,16.4
2023-06-17T05:03:18.671Z,16.4
2023-06-17T05:04:19.544Z,16.4
2023-06-17T05:05:20.555Z,16.3
2023-06-17T05:06:21.532Z,16.3
2023-06-17T05:07:22.545Z,16.2
2023-06-17T05:08:23.550Z,16.2
2023-06-17T05:09:24.557Z,16.2
2023-06-17T05:10:25.532Z,16.2
2023-06-17T05:11:26.562Z,16.3
2023-06-17T05:12:27.534Z,16.3
2023-06-17T05:13:28.550Z,16.2
2023-06-17T05:14:29.544Z,16.3
2023-06-17T05:15:30.528Z,16.3
2023-06-17T05:16:31.568Z,16.3
2023-06-17T05:17:33.067Z,16.4
2023-06-17T05:18:34.546Z,16.4
2023-06-17T05:19:35.543Z,16.4
2023-06-17T05:20:36.531Z,16.5
2023-06-17T05:21:37.544Z,16.5
2023-06-17T05:22:38.552Z,16.6
2023-06-17T05:23:39.541Z,16.6
2023-06-17T05:24:40.660Z,16.6
2023-06-17T05:25:41.561Z,16.6
2023-06-17T05:26:42.532Z,16.7
2023-06-17T05:27:43.558Z,16.8
2023-06-17T05:28:44.565Z,16.8
2023-06-17T05:29:45.554Z,16.7
2023-06-17T05:30:46.544Z,16.6
2023-06-17T05:31:47.600Z,16.5
2023-06-17T05:32:48.591Z,16.5
2023-06-17T05:33:49.558Z,16.6
2023-06-17T05:34:50.556Z,16.6
2023-06-17T05:35:51.548Z,16.6
2023-06-17T05:36:52.604Z,16.6
2023-06-17T05:37:53.545Z,16.6
2023-06-17T05:38:54.554Z,16.7
2023-06-17T05:39:55.544Z,16.8
2023-06-17T05:40:56.570Z,16.9
2023-06-17T05:41:57.554Z,17
2023-06-17T05:42:58.946Z,17
2023-06-17T05:43:59.577Z,17
2023-06-17T05:45:00.576Z,17.1
2023-06-17T05:46:01.612Z,17.1
2023-06-17T05:47:02.558Z,17.1
2023-06-17T05:48:03.589Z,17.1
2023-06-17T05:49:04.551Z,17.2
2023-06-17T05:50:05.544Z,17.3
2023-06-17T05:51:06.658Z,17.4
2023-06-17T05:52:07.558Z,17.5
2023-06-17T05:53:08.569Z,17.4
2023-06-17T05:54:09.690Z,17.4
2023-06-17T05:55:10.677Z,17.2
2023-06-17T05:56:11.546Z,17.1
2023-06-17T05:57:12.567Z,17.2
2023-06-17T05:58:13.562Z,17.1
2023-06-17T05:59:16.120Z,17.2
2023-06-17T06:00:15.590Z,17.2
2023-06-17T06:01:16.577Z,17.2
2023-06-17T06:02:17.563Z,17.1
2023-06-17T06:03:18.583Z,17.1
2023-06-17T06:04:19.628Z,17
2023-06-17T06:05:20.601Z,16.9
2023-06-17T06:06:21.565Z,16.9
2023-06-17T06:07:22.570Z,16.9
2023-06-17T06:08:23.573Z,16.7
2023-06-17T06:09:24.627Z,16.7
2023-06-17T06:10:25.569Z,16.6
2023-06-17T06:11:26.581Z,16.6
2023-06-17T06:12:27.616Z,16.5
2023-06-17T06:13:28.567Z,16.5
2023-06-17T06:14:29.597Z,16.5
2023-06-17T06:15:30.566Z,16.6
2023-06-17T06:16:31.631Z,16.6
2023-06-17T06:17:32.619Z,16.6
2023-06-17T06:18:33.613Z,16.7
2023-06-17T06:19:34.575Z,16.8
2023-06-17T06:20:35.584Z,16.8
2023-06-17T06:21:36.595Z,16.9
2023-06-17T06:22:37.589Z,16.8
2023-06-17T06:23:38.603Z,16.7
2023-06-17T06:24:39.616Z,16.7
2023-06-17T06:25:40.605Z,16.6
2023-06-17T06:26:41.692Z,16.5
2023-06-17T06:27:42.638Z,16.5
2023-06-17T06:28:43.585Z,16.4
2023-06-17T06:29:44.627Z,16.5
2023-06-17T06:30:45.594Z,16.5
2023-06-17T06:31:46.580Z,16.4
2023-06-17T06:32:47.599Z,16.5
2023-06-17T06:33:48.572Z,16.5
2023-06-17T06:34:49.646Z,16.5
2023-06-17T06:35:50.586Z,16.5
2023-06-17T06:36:51.586Z,16.6
2023-06-17T06:37:52.638Z,16.7
2023-06-17T06:38:53.579Z,16.8
2023-06-17T06:39:54.607Z,16.9
2023-06-17T06:40:55.634Z,17
2023-06-17T06:41:56.587Z,17.1
2023-06-17T06:42:57.599Z,17.2
2023-06-17T06:43:58.653Z,17.3
2023-06-17T06:44:59.623Z,17.4
2023-06-17T06:46:00.724Z,17.5
2023-06-17T06:47:01.647Z,17.5
2023-06-17T06:48:02.653Z,17.5
2023-06-17T06:49:03.615Z,17.6
2023-06-17T06:50:04.644Z,17.5
2023-06-17T06:51:05.656Z,17.6
2023-06-17T06:52:06.639Z,17.5
2023-06-17T06:53:07.643Z,17.5
2023-06-17T06:54:08.598Z,17.5
2023-06-17T06:55:09.632Z,17.5
2023-06-17T06:56:10.793Z,17.4
2023-06-17T06:57:11.614Z,17.3
2023-06-17T06:58:12.583Z,17.4
2023-06-17T06:59:13.648Z,17.4
2023-06-17T07:00:14.700Z,17.4
2023-06-17T07:01:15.657Z,17.3
2023-06-17T07:02:16.626Z,17.3
2023-06-17T07:03:17.642Z,17.3
2023-06-17T07:04:18.659Z,17.3
2023-06-17T07:05:19.642Z,17.4
2023-06-17T07:06:20.607Z,17.4
2023-06-17T07:07:21.610Z,17.4
2023-06-17T07:08:22.605Z,17.4
2023-06-17T07:09:23.612Z,17.4
2023-06-17T07:10:24.841Z,17.4
2023-06-17T07:11:25.594Z,17.4
2023-06-17T07:12:26.608Z,17.5
2023-06-17T07:13:27.612Z,17.5
2023-06-17T07:14:28.607Z,17.6
2023-06-17T07:15:29.640Z,17.6
2023-06-17T07:16:30.638Z,17.7
2023-06-17T07:17:31.610Z,17.8
2023-06-17T07:18:32.634Z,17.9
2023-06-17T07:19:33.612Z,18
2023-06-17T07:20:34.765Z,18.1
2023-06-17T07:21:35.659Z,18.2
2023-06-17T07:22:36.707Z,18.2
2023-06-17T07:23:37.648Z,18.1
2023-06-17T07:24:38.662Z,18
2023-06-17T07:25:39.607Z,18
2023-06-17T07:26:40.676Z,18
2023-06-17T07:27:41.612Z,18.1
2023-06-17T07:28:42.618Z,18.1
2023-06-17T07:29:43.622Z,18.2
2023-06-17T07:30:44.664Z,18.2
2023-06-17T07:31:45.618Z,18.2
2023-06-17T07:32:46.631Z,18.3
2023-06-17T07:33:47.598Z,18.3
2023-06-17T07:34:48.614Z,18.4
2023-06-17T07:35:49.617Z,18.5
2023-06-17T07:36:50.608Z,18.4
2023-06-17T07:37:51.626Z,18.5
2023-06-17T07:38:52.627Z,18.5
2023-06-17T07:39:53.629Z,18.5
2023-06-17T07:40:54.610Z,18.4
2023-06-17T07:41:55.624Z,18.3
2023-06-17T07:42:56.653Z,18.2
2023-06-17T07:43:57.611Z,18.1
2023-06-17T07:44:58.613Z,18
2023-06-17T07:45:59.757Z,17.9
2023-06-17T07:47:00.670Z,17.8
2023-06-17T07:48:01.740Z,17.9
2023-06-17T07:49:02.639Z,18
2023-06-17T07:50:03.653Z,18.1
2023-06-17T07:51:04.632Z,18.2
2023-06-17T07:52:05.619Z,18.4
2023-06-17T07:53:06.666Z,18.5
2023-06-17T07:54:07.632Z,18.5
2023-06-17T07:55:09.249Z,18.6
2023-06-17T07:56:10.831Z,18.7
2023-06-17T07:57:11.634Z,18.8
2023-06-17T07:58:12.633Z,19
2023-06-17T07:59:13.655Z,19
2023-06-17T08:00:14.714Z,19.1
2023-06-17T08:01:15.676Z,19.1
2023-06-17T08:02:16.766Z,19.1
2023-06-17T08:03:17.667Z,19.1
2023-06-17T08:04:18.678Z,19.1
2023-06-17T08:05:19.695Z,19.1
2023-06-17T08:06:20.739Z,19.2
2023-06-17T08:07:21.654Z,19.2
2023-06-17T08:08:22.672Z,19.2
2023-06-17T08:09:23.623Z,19.2
2023-06-17T08:10:24.681Z,19.1
2023-06-17T08:11:25.651Z,19.1
2023-06-17T08:12:26.675Z,19.1
2023-06-17T08:13:27.636Z,19.2
2023-06-17T08:14:28.638Z,19.3
2023-06-17T08:15:29.713Z,19.3
2023-06-17T08:16:30.756Z,19.3
2023-06-17T08:17:31.737Z,19.3
2023-06-17T08:18:32.689Z,19.3
2023-06-17T08:19:33.648Z,19.3
2023-06-17T08:20:34.725Z,19.4
2023-06-17T08:21:35.633Z,19.4
2023-06-17T08:22:36.675Z,19.5
2023-06-17T08:23:37.632Z,19.5
2023-06-17T08:24:38.664Z,19.7
2023-06-17T08:25:39.645Z,19.9
2023-06-17T08:26:40.674Z,20.1
2023-06-17T08:27:42.260Z,20.2
2023-06-17T08:28:43.659Z,20.4
2023-06-17T08:29:44.647Z,20.5
2023-06-17T08:30:45.657Z,20.6
2023-06-17T08:31:46.692Z,20.7
2023-06-17T08:32:47.688Z,20.8
2023-06-17T08:33:48.680Z,20.9
2023-06-17T08:34:49.643Z,20.9
2023-06-17T08:35:50.651Z,20.9
2023-06-17T08:36:51.660Z,20.8
2023-06-17T08:37:52.677Z,20.8
2023-06-17T08:38:53.691Z,20.7
2023-06-17T08:39:54.655Z,20.6
2023-06-17T08:40:55.670Z,20.6
2023-06-17T08:41:56.645Z,20.5
2023-06-17T08:42:57.650Z,20.5
2023-06-17T08:43:58.661Z,20.6
2023-06-17T08:44:59.666Z,20.7
2023-06-17T08:46:00.875Z,20.8
2023-06-17T08:47:01.720Z,20.9
2023-06-17T08:48:02.727Z,21.1
2023-06-17T08:49:03.659Z,21.3
2023-06-17T08:50:04.693Z,21.5
2023-06-17T08:51:05.697Z,21.7
2023-06-17T08:52:06.747Z,21.7
2023-06-17T08:53:07.714Z,21.8
2023-06-17T08:54:08.661Z,21.9
2023-06-17T08:55:09.683Z,21.9
2023-06-17T08:56:11.403Z,22
2023-06-17T08:57:12.730Z,22
2023-06-17T08:58:13.658Z,22
2023-06-17T08:59:14.692Z,21.9
2023-06-17T09:00:15.711Z,21.9
2023-06-17T09:01:16.719Z,21.9
2023-06-17T09:02:17.745Z,21.9
2023-06-17T09:03:18.669Z,21.9
2023-06-17T09:04:19.730Z,21.9
2023-06-17T09:05:20.754Z,21.8
2023-06-17T09:06:21.750Z,21.7
2023-06-17T09:07:22.668Z,21.7
2023-06-17T09:08:23.669Z,21.7
2023-06-17T09:09:24.680Z,21.6
2023-06-17T09:10:25.695Z,21.5
2023-06-17T09:11:26.739Z,21.4
2023-06-17T09:12:27.676Z,21.1
2023-06-17T09:13:28.753Z,20.8
2023-06-17T09:14:29.679Z,20.7
2023-06-17T09:15:30.686Z,20.7
2023-06-17T09:16:31.702Z,20.6
2023-06-17T09:17:32.864Z,20.4
2023-06-17T09:18:33.725Z,20.3
2023-06-17T09:19:34.689Z,20.2
2023-06-17T09:20:35.686Z,20
2023-06-17T09:21:36.704Z,19.9
2023-06-17T09:22:39.691Z,20
2023-06-17T09:23:38.695Z,20
2023-06-17T09:24:39.684Z,20
2023-06-17T09:25:40.771Z,20.1
2023-06-17T09:26:41.691Z,20.3
2023-06-17T09:27:42.675Z,20.5
2023-06-17T09:28:43.678Z,20.5
2023-06-17T09:29:44.698Z,20.3
2023-06-17T09:30:45.719Z,20.2
2023-06-17T09:31:47.080Z,20
2023-06-17T09:32:47.750Z,19.8
2023-06-17T09:33:48.717Z,19.8
2023-06-17T09:34:49.710Z,19.7
2023-06-17T09:35:50.691Z,19.6
2023-06-17T09:36:51.698Z,19.5
2023-06-17T09:38:02.240Z,19.5
2023-06-17T09:38:53.706Z,19.5
2023-06-17T09:39:54.728Z,19.5
2023-06-17T09:40:57.411Z,19.5
2023-06-17T09:41:56.696Z,19.4
2023-06-17T09:42:57.689Z,19.4
2023-06-17T09:43:58.692Z,19.4
2023-06-17T09:44:59.713Z,19.4
2023-06-17T09:46:01.320Z,19.3
2023-06-17T09:47:01.749Z,19.3
2023-06-17T09:48:02.918Z,19.2
2023-06-17T09:49:03.727Z,19.1
2023-06-17T09:50:04.728Z,19
2023-06-17T09:51:05.688Z,18.9
2023-06-17T09:52:06.832Z,18.9
2023-06-17T09:53:07.692Z,18.8
2023-06-17T09:54:08.716Z,18.8
2023-06-17T09:55:09.730Z,18.8
2023-06-17T09:56:11.205Z,18.9
2023-06-17T09:57:12.736Z,19
2023-06-17T09:58:13.705Z,19.1
2023-06-17T09:59:17.797Z,19.2
2023-06-17T10:00:16.745Z,19.3
2023-06-17T10:01:17.711Z,19.2
2023-06-17T10:02:18.736Z,19.2
2023-06-17T10:03:19.753Z,19.1
2023-06-17T10:04:20.881Z,19.1
2023-06-17T10:05:21.712Z,19.1
2023-06-17T10:06:22.722Z,19.1
2023-06-17T10:07:23.712Z,19.1
2023-06-17T10:08:24.702Z,19.1
2023-06-17T10:09:25.703Z,19.1
2023-06-17T10:10:26.708Z,19.1
2023-06-17T10:11:27.736Z,19
2023-06-17T10:12:28.737Z,19
2023-06-17T10:13:29.718Z,19
2023-06-17T10:14:30.704Z,19
2023-06-17T10:15:31.719Z,19
2023-06-17T10:16:32.737Z,19
2023-06-17T10:17:33.765Z,19
2023-06-17T10:18:34.814Z,19
2023-06-17T10:19:35.718Z,19.1
2023-06-17T10:20:36.710Z,19.1
2023-06-17T10:21:37.726Z,19.2
2023-06-17T10:22:38.716Z,19.1
2023-06-17T10:23:39.752Z,19.2
2023-06-17T10:24:40.844Z,19.3
2023-06-17T10:25:41.737Z,19.4
2023-06-17T10:26:42.715Z,19.5
2023-06-17T10:27:43.781Z,19.5
2023-06-17T10:28:44.741Z,19.6
2023-06-17T10:29:45.747Z,19.8
2023-06-17T10:30:46.712Z,20
2023-06-17T10:31:47.722Z,20.2
2023-06-17T10:32:50.157Z,20.5
2023-06-17T10:33:50.378Z,20.6
2023-06-17T10:34:51.735Z,20.6
2023-06-17T10:35:52.727Z,20.5
2023-06-17T10:36:53.717Z,20.4
2023-06-17T10:37:54.720Z,20.4
2023-06-17T10:38:55.756Z,20.4
2023-06-17T10:39:56.735Z,20.6
2023-06-17T10:40:57.735Z,20.6
2023-06-17T10:41:58.949Z,20.7
2023-06-17T10:42:59.717Z,20.7
2023-06-17T10:44:00.935Z,20.8
2023-06-17T10:45:01.780Z,20.9
2023-06-17T10:46:02.880Z,21.1
2023-06-17T10:47:03.724Z,21.2
2023-06-17T10:48:04.778Z,21.3
2023-06-17T10:49:05.786Z,21.4
2023-06-17T10:50:06.771Z,21.6
2023-06-17T10:51:07.743Z,21.8
2023-06-17T10:52:08.740Z,22
2023-06-17T10:53:09.759Z,22.3
2023-06-17T10:54:10.763Z,22.4
2023-06-17T10:55:11.761Z,22.7
2023-06-17T10:56:14.097Z,22.8
2023-06-17T10:57:13.760Z,22.7
2023-06-17T10:58:14.762Z,22.5
2023-06-17T10:59:15.782Z,22.2
2023-06-17T11:00:16.768Z,22
2023-06-17T11:01:17.773Z,21.9
2023-06-17T11:02:18.768Z,21.8
2023-06-17T11:03:19.952Z,21.6
2023-06-17T11:04:20.857Z,21.5
2023-06-17T11:05:21.755Z,21.4
2023-06-17T11:06:22.801Z,21.4
2023-06-17T11:07:23.772Z,21.4
2023-06-17T11:08:24.748Z,21.4
2023-06-17T11:09:25.770Z,21.4
2023-06-17T11:10:26.754Z,21.5
2023-06-17T11:11:27.751Z,21.5
2023-06-17T11:12:28.760Z,21.5
2023-06-17T11:13:29.766Z,21.6
2023-06-17T11:14:30.747Z,21.8
2023-06-17T11:15:31.778Z,22
2023-06-17T11:16:32.784Z,22.1
2023-06-17T11:17:33.796Z,22.2
2023-06-17T11:18:34.758Z,22.4
2023-06-17T11:19:35.784Z,22.6
2023-06-17T11:20:36.766Z,22.7
2023-06-17T11:21:37.779Z,22.7
2023-06-17T11:22:38.762Z,22.7
2023-06-17T11:23:39.822Z,22.6
2023-06-17T11:24:40.862Z,22.6
2023-06-17T11:25:45.260Z,22.5
2023-06-17T11:26:43.141Z,22.5
2023-06-17T11:27:43.828Z,22.6
2023-06-17T11:28:44.782Z,22.6
2023-06-17T11:29:45.793Z,22.6
2023-06-17T11:30:47.556Z,22.4
2023-06-17T11:31:50.582Z,22.4
2023-06-17T11:32:52.835Z,22.3
2023-06-17T11:33:53.764Z,22.3
2023-06-17T11:34:54.801Z,22.5
2023-06-17T11:35:55.768Z,22.6
2023-06-17T11:36:56.784Z,22.8
2023-06-17T11:37:57.766Z,23
2023-06-17T11:38:58.820Z,23.1
2023-06-17T11:39:59.782Z,23.1
2023-06-17T11:41:00.805Z,23.2
2023-06-17T11:42:01.806Z,23.4
2023-06-17T11:43:02.805Z,23.5
2023-06-17T11:44:03.777Z,23.6
2023-06-17T11:45:04.786Z,23.7
2023-06-17T11:46:05.780Z,23.7
2023-06-17T11:47:06.859Z,23.8
2023-06-17T11:48:07.842Z,23.8
2023-06-17T11:49:08.773Z,23.8
2023-06-17T11:50:09.834Z,23.7
2023-06-17T11:51:10.795Z,23.8
2023-06-17T11:52:11.831Z,23.7
2023-06-17T11:53:12.808Z,23.6
2023-06-17T11:54:13.766Z,23.5
2023-06-17T11:55:14.770Z,23.4
2023-06-17T11:56:15.772Z,23.4
2023-06-17T11:57:16.787Z,23.5
2023-06-17T11:58:17.780Z,23.5
2023-06-17T11:59:18.772Z,23.5
2023-06-17T12:00:20.175Z,23.4
2023-06-17T12:01:20.821Z,23.4
2023-06-17T12:02:21.869Z,23.3
2023-06-17T12:03:22.830Z,23.3
2023-06-17T12:04:23.897Z,23.2
2023-06-17T12:05:24.816Z,23.1
2023-06-17T12:06:26.283Z,23.1
2023-06-17T12:07:27.781Z,23.1
2023-06-17T12:08:28.792Z,23.1
2023-06-17T12:09:29.782Z,23.2
2023-06-17T12:10:30.840Z,23.4
2023-06-17T12:11:31.839Z,23.6
2023-06-17T12:12:32.921Z,23.7
2023-06-17T12:13:33.771Z,23.8
2023-06-17T12:14:34.797Z,23.8
2023-06-17T12:15:37.043Z,23.8
2023-06-17T12:16:36.785Z,23.7
2023-06-17T12:17:37.867Z,23.8
2023-06-17T12:18:38.807Z,24
2023-06-17T12:19:39.820Z,24.2
2023-06-17T12:20:40.846Z,24.4
2023-06-17T12:21:41.803Z,24.5
2023-06-17T12:22:42.787Z,24.6
2023-06-17T12:23:44.482Z,24.6
2023-06-17T12:24:44.823Z,24.6
2023-06-17T12:25:45.804Z,24.6
2023-06-17T12:26:46.814Z,24.6
2023-06-17T12:27:47.811Z,24.7
2023-06-17T12:28:48.804Z,24.8
2023-06-17T12:29:49.815Z,24.8
2023-06-17T12:30:50.809Z,24.7
2023-06-17T12:31:51.800Z,24.7
2023-06-17T12:32:52.814Z,24.6
2023-06-17T12:33:53.799Z,24.5
2023-06-17T12:34:54.802Z,24.4
2023-06-17T12:35:55.825Z,24.2
2023-06-17T12:36:56.793Z,24.1
2023-06-17T12:37:57.811Z,24.1
2023-06-17T12:38:58.821Z,24.1
2023-06-17T12:39:59.804Z,24.2
2023-06-17T12:41:00.866Z,24.2
2023-06-17T12:42:02.693Z,24.4
2023-06-17T12:43:02.821Z,24.5
2023-06-17T12:44:03.846Z,24.7
2023-06-17T12:45:04.840Z,24.9
2023-06-17T12:46:05.929Z,25.1
2023-06-17T12:47:06.873Z,25.3
2023-06-17T12:48:07.837Z,25.5
2023-06-17T12:49:08.826Z,25.7
2023-06-17T12:50:09.844Z,25.7
2023-06-17T12:51:11.002Z,25.8
2023-06-17T12:52:11.899Z,25.9
2023-06-17T12:53:12.789Z,26.1
2023-06-17T12:54:13.820Z,26.3
2023-06-17T12:55:14.825Z,26.6
2023-06-17T12:56:15.842Z,26.7
2023-06-17T12:57:16.875Z,26.9
2023-06-17T12:58:17.817Z,27
2023-06-17T12:59:18.820Z,27
2023-06-17T13:00:19.890Z,27
2023-06-17T13:01:20.897Z,26.9
2023-06-17T13:02:21.847Z,26.8
2023-06-17T13:03:22.897Z,26.8
2023-06-17T13:04:23.847Z,26.6
2023-06-17T13:05:24.855Z,26.3
2023-06-17T13:06:25.853Z,26.2
2023-06-17T13:07:26.822Z,26.1
2023-06-17T13:08:27.824Z,26
2023-06-17T13:09:28.823Z,26
2023-06-17T13:10:29.829Z,26
2023-06-17T13:11:30.814Z,26.2
2023-06-17T13:12:31.818Z,26.5
2023-06-17T13:13:32.845Z,26.7
2023-06-17T13:14:33.977Z,26.8
2023-06-17T13:15:34.836Z,26.9
2023-06-17T13:16:35.851Z,26.9
2023-06-17T13:17:36.967Z,26.9
2023-06-17T13:18:37.852Z,26.8
2023-06-17T13:19:38.889Z,26.4
2023-06-17T13:20:40.032Z,25.9
2023-06-17T13:21:40.931Z,25.5
2023-06-17T13:22:41.844Z,25.1
2023-06-17T13:23:42.835Z,24.8
2023-06-17T13:24:43.843Z,24.6
2023-06-17T13:25:44.825Z,24.5
2023-06-17T13:26:45.852Z,24.5
2023-06-17T13:27:46.870Z,24.6
2023-06-17T13:28:47.859Z,24.7
2023-06-17T13:29:48.832Z,24.7
2023-06-17T13:30:49.853Z,24.7
2023-06-17T13:31:50.845Z,24.7
2023-06-17T13:32:51.853Z,24.7
2023-06-17T13:33:52.823Z,24.7
2023-06-17T13:34:53.859Z,24.7
2023-06-17T13:35:54.886Z,24.6
2023-06-17T13:36:55.863Z,24.6
2023-06-17T13:37:56.825Z,24.6